Time,TemperatureF,DewpointF,PressureIn,WindDirection,WindDirectionDegrees,WindSpeedMPH,WindSpeedGustMPH,Humidity,HourlyPrecipIn,Conditions,Clouds,dailyrainin,SoftwareType,DateUTC
2013-07-23 00:13:00,68.4,68.0,29.82,SSE,156,0.0,2.0,97,0.19,,,0.07,weatherlink.com 1.10,2013-07-23 04:13:00,
2013-07-23 00:28:00,68.1,67.0,29.81,SSE,156,0.0,0.0,97,0.29,,,0.19,weatherlink.com 1.10,2013-07-23 04:28:00,
2013-07-23 00:43:00,67.9,67.0,29.80,SSE,156,0.0,1.0,97,0.29,,,0.25,weatherlink.com 1.10,2013-07-23 04:43:00,
2013-07-23 00:58:00,67.9,67.0,29.79,SSE,156,0.0,0.0,98,0.26,,,0.26,weatherlink.com 1.10,2013-07-23 04:58:00,
2013-07-23 01:13:00,67.8,67.0,29.78,SSE,156,0.0,0.0,98,0.20,,,0.27,weatherlink.com 1.10,2013-07-23 05:13:00,
2013-07-23 01:28:00,67.7,67.0,29.77,SSE,156,0.0,0.0,98,0.08,,,0.27,weatherlink.com 1.10,2013-07-23 05:28:00,
2013-07-23 01:43:00,67.6,67.0,29.77,SSE,156,0.0,0.0,98,0.02,,,0.27,weatherlink.com 1.10,2013-07-23 05:43:00,
2013-07-23 01:58:00,67.7,67.0,29.76,SSE,156,0.0,0.0,98,0.01,,,0.27,weatherlink.com 1.10,2013-07-23 05:58:00,
2013-07-23 02:13:00,67.9,67.0,29.75,SSE,156,0.0,0.0,98,0.00,,,0.27,weatherlink.com 1.10,2013-07-23 06:13:00,
2013-07-23 02:28:00,67.9,67.0,29.75,SSE,156,0.0,1.0,98,0.18,,,0.45,weatherlink.com 1.10,2013-07-23 06:28:00,
2013-07-23 02:43:00,67.8,67.0,29.74,SSE,155,0.0,0.0,98,0.70,,,0.97,weatherlink.com 1.10,2013-07-23 06:43:00,
2013-07-23 02:58:00,67.7,67.0,29.73,SSE,150,0.0,0.0,98,0.82,,,1.09,weatherlink.com 1.10,2013-07-23 06:58:00,
2013-07-23 03:13:00,67.7,67.0,29.73,ENE,71,0.0,1.0,98,0.88,,,1.15,weatherlink.com 1.10,2013-07-23 07:13:00,
2013-07-23 03:28:00,67.6,67.0,29.72,ENE,71,0.0,0.0,99,0.77,,,1.26,weatherlink.com 1.10,2013-07-23 07:28:00,
2013-07-23 03:43:00,67.6,67.0,29.71,ENE,71,0.0,0.0,99,0.28,,,1.26,weatherlink.com 1.10,2013-07-23 07:43:00,
2013-07-23 03:58:00,67.5,67.0,29.71,ENE,71,0.0,0.0,99,0.17,,,1.26,weatherlink.com 1.10,2013-07-23 07:58:00,
2013-07-23 04:13:00,67.6,67.0,29.70,ENE,71,0.0,0.0,99,0.11,,,1.27,weatherlink.com 1.10,2013-07-23 08:13:00,
2013-07-23 04:29:00,67.6,67.0,29.69,ENE,71,0.0,0.0,99,0.01,,,1.27,weatherlink.com 1.10,2013-07-23 08:29:00,
2013-07-23 04:44:00,67.7,67.0,29.69,ENE,71,0.0,0.0,99,0.01,,,1.27,weatherlink.com 1.10,2013-07-23 08:44:00,
2013-07-23 04:59:00,67.8,68.0,29.68,ENE,71,0.0,0.0,99,0.02,,,1.28,weatherlink.com 1.10,2013-07-23 08:59:00,
2013-07-23 05:14:00,67.9,68.0,29.68,ENE,71,0.0,1.0,99,0.01,,,1.28,weatherlink.com 1.10,2013-07-23 09:14:00,
2013-07-23 05:29:00,67.7,67.0,29.68,ENE,71,0.0,1.0,99,0.01,,,1.28,weatherlink.com 1.10,2013-07-23 09:29:00,
2013-07-23 05:44:00,67.5,67.0,29.67,ENE,71,0.0,0.0,99,0.01,,,1.28,weatherlink.com 1.10,2013-07-23 09:44:00,
2013-07-23 05:59:00,67.5,67.0,29.67,ENE,71,0.0,0.0,99,0.00,,,1.28,weatherlink.com 1.10,2013-07-23 09:59:00,
2013-07-23 06:14:00,67.7,67.0,29.67,ENE,71,0.0,0.0,99,0.00,,,1.28,weatherlink.com 1.10,2013-07-23 10:14:00,
2013-07-23 06:29:00,67.6,67.0,29.67,ENE,71,0.0,0.0,99,0.00,,,1.28,weatherlink.com 1.10,2013-07-23 10:29:00,
2013-07-23 06:44:00,67.7,67.0,29.66,ENE,71,0.0,0.0,99,0.00,,,1.28,weatherlink.com 1.10,2013-07-23 10:44:00,
2013-07-23 06:59:00,67.8,68.0,29.65,ENE,71,0.0,0.0,99,0.00,,,1.28,weatherlink.com 1.10,2013-07-23 10:59:00,
2013-07-23 07:14:00,68.0,68.0,29.65,ENE,71,0.0,0.0,99,0.00,,,1.28,weatherlink.com 1.10,2013-07-23 11:14:00,
2013-07-23 07:29:00,68.1,68.0,29.65,ENE,71,0.0,0.0,99,0.00,,,1.28,weatherlink.com 1.10,2013-07-23 11:29:00,
2013-07-23 07:44:00,68.2,68.0,29.65,ENE,71,0.0,0.0,99,0.00,,,1.28,weatherlink.com 1.10,2013-07-23 11:44:00,
2013-07-23 07:59:00,68.7,68.0,29.64,ENE,71,0.0,0.0,99,0.00,,,1.28,weatherlink.com 1.10,2013-07-23 11:59:00,
2013-07-23 08:13:00,69.3,69.0,29.64,ENE,71,0.0,0.0,100,0.00,,,1.28,weatherlink.com 1.10,2013-07-23 12:13:00,
2013-07-23 08:28:00,69.7,69.0,29.64,ENE,71,0.0,0.0,99,0.00,,,1.28,weatherlink.com 1.10,2013-07-23 12:28:00,
2013-07-23 08:43:00,69.9,70.0,29.64,ENE,71,0.0,0.0,99,0.00,,,1.28,weatherlink.com 1.10,2013-07-23 12:43:00,
2013-07-23 08:58:00,70.4,70.0,29.64,ENE,70,0.0,0.0,99,0.00,,,1.28,weatherlink.com 1.10,2013-07-23 12:58:00,
2013-07-23 09:13:00,70.1,70.0,29.63,NNE,32,0.0,6.0,99,0.01,,,1.29,weatherlink.com 1.10,2013-07-23 13:13:00,
2013-07-23 09:28:00,69.9,70.0,29.62,NNE,28,0.0,4.0,99,0.01,,,1.29,weatherlink.com 1.10,2013-07-23 13:28:00,
2013-07-23 09:43:00,70.5,70.0,29.62,NNE,28,0.0,0.0,99,0.01,,,1.29,weatherlink.com 1.10,2013-07-23 13:43:00,
2013-07-23 09:58:00,71.1,71.0,29.62,NNE,32,0.0,2.0,99,0.01,,,1.29,weatherlink.com 1.10,2013-07-23 13:58:00,
2013-07-23 10:13:00,72.6,72.0,29.62,NNE,32,0.0,2.0,99,0.00,,,1.29,weatherlink.com 1.10,2013-07-23 14:13:00,
2013-07-23 10:28:00,74.1,73.0,29.61,ENE,71,0.0,3.0,97,0.00,,,1.29,weatherlink.com 1.10,2013-07-23 14:28:00,
2013-07-23 10:43:00,74.0,72.0,29.61,NE,49,4.0,5.0,94,0.00,,,1.29,weatherlink.com 1.10,2013-07-23 14:43:00,
2013-07-23 10:58:00,74.1,71.0,29.61,North,355,1.0,6.0,91,0.00,,,1.29,weatherlink.com 1.10,2013-07-23 14:58:00,
2013-07-23 11:13:00,74.8,72.0,29.62,WNW,288,0.0,2.0,91,0.00,,,1.29,weatherlink.com 1.10,2013-07-23 15:13:00,
2013-07-23 11:28:00,75.2,72.0,29.61,NE,39,0.0,7.0,88,0.00,,,1.29,weatherlink.com 1.10,2013-07-23 15:28:00,
2013-07-23 11:44:00,77.9,75.0,29.61,WSW,254,2.0,3.0,89,0.00,,,1.29,weatherlink.com 1.10,2013-07-23 15:44:00,
2013-07-23 11:59:00,79.0,72.0,29.61,ENE,57,3.0,7.0,79,0.00,,,1.29,weatherlink.com 1.10,2013-07-23 15:59:00,
2013-07-23 12:14:00,79.1,71.0,29.61,North,11,1.0,7.0,77,0.00,,,1.29,weatherlink.com 1.10,2013-07-23 16:14:00,
2013-07-23 12:29:00,78.7,71.0,29.61,NE,34,1.0,7.0,78,0.00,,,1.29,weatherlink.com 1.10,2013-07-23 16:29:00,
2013-07-23 12:44:00,81.3,75.0,29.61,South,191,3.0,8.0,80,0.00,,,1.29,weatherlink.com 1.10,2013-07-23 16:44:00,
2013-07-23 12:59:00,81.5,72.0,29.60,ENE,73,0.0,4.0,73,0.00,,,1.29,weatherlink.com 1.10,2013-07-23 16:59:00,
2013-07-23 13:14:00,81.9,72.0,29.59,NNE,25,4.0,8.0,71,0.00,,,1.29,weatherlink.com 1.10,2013-07-23 17:14:00,
2013-07-23 13:29:00,83.1,73.0,29.58,SSW,196,0.0,6.0,71,0.00,,,1.29,weatherlink.com 1.10,2013-07-23 17:29:00,
2013-07-23 13:44:00,83.1,71.0,29.58,ENE,57,3.0,4.0,68,0.00,,,1.29,weatherlink.com 1.10,2013-07-23 17:44:00,
2013-07-23 13:59:00,82.9,72.0,29.57,SSW,199,3.0,5.0,70,0.00,,,1.29,weatherlink.com 1.10,2013-07-23 17:59:00,
2013-07-23 14:14:00,83.4,71.0,29.57,NNE,24,0.0,7.0,67,0.00,,,1.29,weatherlink.com 1.10,2013-07-23 18:14:00,
2013-07-23 14:44:00,82.5,71.0,29.57,ENE,74,1.0,5.0,68,0.00,,,1.29,weatherlink.com 1.10,2013-07-23 18:44:00,
2013-07-23 14:59:00,82.3,72.0,29.57,ENE,58,0.0,2.0,71,0.00,,,1.29,weatherlink.com 1.10,2013-07-23 18:59:00,
2013-07-23 15:14:00,81.8,72.0,29.56,NE,49,0.0,3.0,72,0.00,,,1.29,weatherlink.com 1.10,2013-07-23 19:14:00,
2013-07-23 15:29:00,83.4,70.0,29.56,ESE,121,0.0,3.0,65,0.00,,,1.29,weatherlink.com 1.10,2013-07-23 19:29:00,
2013-07-23 15:59:00,82.7,71.0,29.56,NE,48,1.0,2.0,67,0.00,,,1.29,weatherlink.com 1.10,2013-07-23 19:59:00,
2013-07-23 16:29:00,81.8,74.0,29.57,South,179,0.0,3.0,76,0.00,,,1.29,weatherlink.com 1.10,2013-07-23 20:29:00,
2013-07-23 16:44:00,78.2,73.0,29.57,South,182,1.0,4.0,85,0.09,,,1.38,weatherlink.com 1.10,2013-07-23 20:44:00,
2013-07-23 16:59:00,75.8,73.0,29.57,South,182,0.0,0.0,92,0.09,,,1.38,weatherlink.com 1.10,2013-07-23 20:59:00,
2013-07-23 17:14:00,75.3,74.0,29.57,East,80,0.0,2.0,94,0.09,,,1.38,weatherlink.com 1.10,2013-07-23 21:14:00,
2013-07-23 17:30:00,74.9,73.0,29.57,East,80,0.0,0.0,94,0.09,,,1.38,weatherlink.com 1.10,2013-07-23 21:30:00,
2013-07-23 17:45:00,75.3,74.0,29.57,East,80,0.0,0.0,96,0.00,,,1.38,weatherlink.com 1.10,2013-07-23 21:45:00,
2013-07-23 18:45:00,75.1,74.0,29.56,South,190,0.0,0.0,96,0.00,,,1.38,weatherlink.com 1.10,2013-07-23 22:45:00,
2013-07-23 19:15:00,75.0,74.0,29.57,South,190,0.0,2.0,97,0.00,,,1.38,weatherlink.com 1.10,2013-07-23 23:15:00,
2013-07-23 19:30:00,74.7,74.0,29.58,South,190,0.0,1.0,96,0.00,,,1.38,weatherlink.com 1.10,2013-07-23 23:30:00,
2013-07-23 19:45:00,74.3,73.0,29.58,South,190,0.0,0.0,97,0.00,,,1.38,weatherlink.com 1.10,2013-07-23 23:45:00,
2013-07-23 20:00:00,73.9,73.0,29.59,South,190,0.0,0.0,97,0.00,,,1.38,weatherlink.com 1.10,2013-07-24 00:00:00,
2013-07-23 20:15:00,73.4,73.0,29.60,South,190,0.0,0.0,97,0.00,,,1.38,weatherlink.com 1.10,2013-07-24 00:15:00,
2013-07-23 21:00:00,71.8,71.0,29.59,South,190,0.0,0.0,97,0.00,,,1.38,weatherlink.com 1.10,2013-07-24 01:00:00,
2013-07-23 21:15:00,71.4,71.0,29.60,South,190,0.0,0.0,98,0.00,,,1.38,weatherlink.com 1.10,2013-07-24 01:15:00,
2013-07-23 21:30:00,71.0,70.0,29.60,South,190,0.0,0.0,98,0.00,,,1.38,weatherlink.com 1.10,2013-07-24 01:30:00,
2013-07-23 21:45:00,70.9,70.0,29.61,South,190,0.0,0.0,98,0.00,,,1.38,weatherlink.com 1.10,2013-07-24 01:45:00,
2013-07-23 22:00:00,71.0,70.0,29.61,South,190,0.0,0.0,98,0.00,,,1.38,weatherlink.com 1.10,2013-07-24 02:00:00,
2013-07-23 22:15:00,70.8,70.0,29.61,South,190,0.0,0.0,98,0.00,,,1.38,weatherlink.com 1.10,2013-07-24 02:15:00,
2013-07-23 22:30:00,70.3,70.0,29.60,South,190,0.0,0.0,98,0.00,,,1.38,weatherlink.com 1.10,2013-07-24 02:30:00,
2013-07-23 22:45:00,69.9,69.0,29.61,South,190,0.0,0.0,98,0.00,,,1.38,weatherlink.com 1.10,2013-07-24 02:45:00,
2013-07-23 23:00:00,69.4,69.0,29.61,South,190,0.0,0.0,98,0.00,,,1.38,weatherlink.com 1.10,2013-07-24 03:00:00,
2013-07-23 23:15:00,68.9,68.0,29.61,South,190,0.0,0.0,98,0.00,,,1.38,weatherlink.com 1.10,2013-07-24 03:15:00,
2013-07-23 23:45:00,67.9,67.0,29.62,South,190,0.0,0.0,98,0.00,,,1.38,weatherlink.com 1.10,2013-07-24 03:45:00,